Time;durP1;ratioP1;P1;durP2;ratioP2;P2;SDS_P1;SDS_P2;PMS_P1;PMS_P2;Temp;Humidity;BMP_temperature;BMP_pressure;BME280_temperature;BME280_humidity;BME280_pressure;Samples;Min_cycle;Max_cycle;Signal;HPM_P1;HPM_P2
2023/04/25 00:00:10;;;;;;;;;12.60;12.00;;;;;14.41;53.40;98312.13;5068851;28;8842;-71
2023/04/25 00:03:01;;;;;;;;;11.20;10.20;;;;;14.39;54.13;98313.13;5015065;28;8879;-73
2023/04/25 00:05:31;;;;;;;;;9.80;9.80;;;;;14.01;55.12;98306.41;5068380;28;8843;-73
2023/04/25 00:08:00;;;;;;;;;10.00;10.00;;;;;13.89;55.74;98315.84;5070000;28;8946;-72
2023/04/25 00:10:29;;;;;;;;;14.00;11.40;;;;;14.06;55.48;98307.00;5069961;28;8877;-73
2023/04/25 00:12:58;;;;;;;;;13.20;12.20;;;;;14.05;55.31;98304.44;5073014;28;8842;-72
2023/04/25 00:15:30;;;;;;;;;11.40;11.40;;;;;14.09;55.70;98300.69;5069390;28;8839;-71
2023/04/25 00:17:59;;;;;;;;;10.20;9.80;;;;;13.86;56.20;98294.03;5087514;28;9694;-71
2023/04/25 00:20:28;;;;;;;;;8.20;8.20;;;;;14.04;55.77;98298.31;5089976;28;8840;-73
2023/04/25 00:22:57;;;;;;;;;8.80;8.80;;;;;13.62;57.57;98291.75;5089927;28;8859;-72
2023/04/25 00:25:26;;;;;;;;;7.80;7.80;;;;;13.06;59.29;98293.78;5089481;28;8864;-73
2023/04/25 00:27:54;;;;;;;;;15.20;11.80;;;;;13.36;58.58;98292.28;5082038;28;8888;-72
2023/04/25 00:30:23;;;;;;;;;13.20;11.20;;;;;13.50;58.43;98287.13;5051574;28;8850;-74
2023/04/25 00:32:53;;;;;;;;;10.20;10.20;;;;;13.72;57.96;98284.19;5068667;28;8916;-73
2023/04/25 00:35:22;;;;;;;;;11.40;10.60;;;;;13.36;58.81;98285.22;5067993;28;8873;-73
2023/04/25 00:37:51;;;;;;;;;9.80;9.80;;;;;13.18;59.08;98289.66;5084355;28;8862;-74
2023/04/25 00:40:20;;;;;;;;;9.00;9.00;;;;;13.31;58.63;98282.81;5034497;28;8874;-71
2023/04/25 00:42:50;;;;;;;;;8.40;7.40;;;;;12.91;60.63;98289.31;5073833;28;8841;-74
2023/04/25 00:45:19;;;;;;;;;7.00;7.00;;;;;12.72;60.74;98289.34;5067719;28;8876;-72
2023/04/25 00:47:48;;;;;;;;;10.20;9.80;;;;;12.67;61.87;98297.47;5067410;28;8839;-71
2023/04/25 00:50:18;;;;;;;;;7.20;7.20;;;;;13.04;60.99;98289.53;5068992;28;8863;-71
2023/04/25 00:52:47;;;;;;;;;6.20;5.80;;;;;12.88;60.62;98292.09;5037999;28;8829;-72
2023/04/25 00:55:16;;;;;;;;;7.20;7.00;;;;;13.26;59.63;98281.34;5049707;28;9761;-71
2023/04/25 00:57:46;;;;;;;;;5.60;5.00;;;;;13.18;60.03;98283.53;5041832;28;8940;-71
2023/04/25 01:00:16;;;;;;;;;7.60;7.60;;;;;13.31;59.64;98282.81;5029364;28;8860;-72
2023/04/25 01:02:46;;;;;;;;;8.00;8.00;;;;;13.26;59.46;98291.91;5013577;28;8855;-72
2023/04/25 01:05:15;;;;;;;;;8.40;7.20;;;;;13.20;59.96;98287.78;5045988;28;9678;-71
2023/04/25 01:07:47;;;;;;;;;7.80;7.80;;;;;13.47;59.35;98295.22;5065698;28;8935;-72
2023/04/25 01:10:16;;;;;;;;;6.60;6.60;;;;;13.36;59.54;98284.38;5066337;28;8926;-72
2023/04/25 01:12:47;;;;;;;;;12.00;8.80;;;;;13.50;58.96;98281.84;5058470;28;8855;-73
2023/04/25 01:15:16;;;;;;;;;12.60;12.20;;;;;13.36;59.45;98279.09;5046005;28;8870;-70
2023/04/25 01:17:45;;;;;;;;;11.80;11.60;;;;;13.12;60.14;98276.78;5045716;28;8843;-72
2023/04/25 01:20:15;;;;;;;;;12.00;10.80;;;;;12.90;60.91;98277.91;5030867;28;8831;-70
2023/04/25 01:22:46;;;;;;;;;9.80;9.80;;;;;12.85;61.56;98276.44;5052029;28;8848;-70
2023/04/25 01:25:15;;;;;;;;;11.20;8.60;;;;;12.97;60.36;98267.88;5085244;28;8824;-71
2023/04/25 01:27:44;;;;;;;;;7.60;7.60;;;;;12.81;61.26;98280.13;5081773;28;8846;-73
2023/04/25 01:30:14;;;;;;;;;10.60;9.00;;;;;13.13;60.25;98278.50;5048317;28;8855;-72
2023/04/25 01:32:44;;;;;;;;;9.00;9.00;;;;;13.07;60.77;98277.03;5097350;28;8881;-73
2023/04/25 01:35:13;;;;;;;;;8.80;8.80;;;;;13.16;60.50;98277.50;5065078;28;8852;-75
2023/04/25 01:37:43;;;;;;;;;9.40;8.80;;;;;13.35;60.02;98275.59;5077437;28;8853;-72
2023/04/25 01:40:14;;;;;;;;;12.20;12.20;;;;;13.39;59.74;98276.28;5085383;28;8842;-71
2023/04/25 01:42:44;;;;;;;;;9.60;8.60;;;;;12.90;61.65;98288.44;5023916;28;8854;-71
2023/04/25 01:45:14;;;;;;;;;9.00;9.00;;;;;13.04;61.35;98286.91;5024017;28;8837;-72
2023/04/25 01:47:46;;;;;;;;;12.40;10.80;;;;;13.17;60.33;98287.97;5025038;28;8857;-72
2023/04/25 01:50:17;;;;;;;;;11.00;10.20;;;;;13.36;60.13;98285.22;5024835;28;8849;-71
2023/04/25 01:52:46;;;;;;;;;12.20;10.60;;;;;13.13;60.91;98283.78;5020754;28;9668;-74
2023/04/25 01:55:17;;;;;;;;;9.00;9.00;;;;;12.90;61.58;98290.22;5061441;28;9662;-73
2023/04/25 01:58:03;;;;;;;;;6.00;5.80;;;;;12.82;62.17;98289.72;5014062;28;8852;-71
2023/04/25 02:00:52;;;;;;;;;11.00;10.80;;;;;12.17;64.37;98286.78;5006080;28;8850;-72
2023/04/25 02:03:21;;;;;;;;;10.80;10.80;;;;;12.44;64.09;98280.16;5028372;28;8877;-72
2023/04/25 02:05:50;;;;;;;;;10.80;10.80;;;;;12.17;64.67;98294.69;5045043;28;8852;-72
2023/04/25 02:08:19;;;;;;;;;7.60;7.60;;;;;12.40;64.49;98291.78;5045136;28;9033;-73
2023/04/25 02:10:50;;;;;;;;;10.60;10.60;;;;;12.61;63.85;98283.75;5047177;28;8872;-71
2023/04/25 02:13:20;;;;;;;;;8.60;8.60;;;;;12.66;63.25;98285.22;5052451;28;8948;-71
2023/04/25 02:16:17;;;;;;;;;10.60;10.60;;;;;12.79;62.95;98287.22;5064656;28;8958;-71
2023/04/25 02:18:46;;;;;;;;;12.40;11.80;;;;;12.62;63.85;98281.03;5081665;28;8840;-74
2023/04/25 02:21:16;;;;;;;;;15.00;12.00;;;;;12.66;63.52;98281.75;5065034;28;8852;-71
2023/04/25 02:23:47;;;;;;;;;10.00;10.00;;;;;12.03;65.65;98279.50;5064762;28;8875;-71
2023/04/25 02:26:18;;;;;;;;;10.40;10.40;;;;;12.13;66.12;98275.53;5064613;28;9636;-72
2023/04/25 02:28:47;;;;;;;;;11.80;11.80;;;;;12.06;66.27;98279.38;5063331;28;8883;-72
2023/04/25 02:31:17;;;;;;;;;12.00;10.00;;;;;12.10;66.04;98278.28;5011692;28;8846;-71
2023/04/25 02:33:46;;;;;;;;;10.80;9.40;;;;;12.35;65.55;98272.69;5057623;28;8864;-71
2023/04/25 02:36:16;;;;;;;;;13.00;10.80;;;;;12.36;65.13;98270.94;5081239;28;8852;-72
2023/04/25 02:38:45;;;;;;;;;10.80;10.80;;;;;12.56;64.63;98268.16;5064718;28;8863;-71
2023/04/25 02:41:14;;;;;;;;;7.00;7.00;;;;;12.50;64.98;98273.72;5030972;28;8848;-71
2023/04/25 02:43:44;;;;;;;;;11.60;11.60;;;;;12.27;65.50;98270.44;5063228;28;8832;-71
2023/04/25 02:46:13;;;;;;;;;10.00;9.40;;;;;12.20;64.55;98276.06;4999212;28;8866;-71
2023/04/25 02:48:42;;;;;;;;;9.20;9.20;;;;;12.24;65.38;98269.72;5085358;28;8847;-69
2023/04/25 02:51:11;;;;;;;;;10.20;10.20;;;;;12.21;65.31;98280.44;5085977;28;8946;-72
2023/04/25 02:53:39;;;;;;;;;6.20;6.20;;;;;12.07;65.62;98279.31;5069133;28;8883;-73
2023/04/25 02:56:08;;;;;;;;;9.60;9.60;;;;;12.23;65.73;98281.19;5085150;28;8845;-70
2023/04/25 02:58:37;;;;;;;;;9.60;7.40;;;;;11.90;65.81;98276.59;5073715;28;9626;-71
2023/04/25 03:01:08;;;;;;;;;8.00;8.00;;;;;11.91;66.65;98275.69;5071677;28;8838;-70
2023/04/25 03:03:36;;;;;;;;;8.20;8.00;;;;;12.21;65.84;98277.78;5071650;28;9083;-72
2023/04/25 03:06:06;;;;;;;;;9.60;9.60;;;;;11.86;66.79;98280.28;5072752;28;9014;-70
2023/04/25 03:08:34;;;;;;;;;7.60;7.60;;;;;11.97;66.43;98272.75;5078765;28;8957;-70
2023/04/25 03:11:04;;;;;;;;;12.00;11.20;;;;;11.70;67.70;98283.59;5088842;28;8899;-70
2023/04/25 03:13:33;;;;;;;;;9.40;9.40;;;;;11.99;67.16;98276.16;5090291;28;8894;-74
2023/04/25 03:16:02;;;;;;;;;11.40;10.60;;;;;11.74;67.54;98274.63;5071296;28;8864;-72
2023/04/25 03:18:32;;;;;;;;;20.40;17.00;;;;;11.59;67.72;98275.34;5071951;28;8869;-72
2023/04/25 03:21:01;;;;;;;;;11.00;11.00;;;;;11.84;67.54;98284.78;5071722;28;8861;-71
2023/04/25 03:23:32;;;;;;;;;9.00;9.00;;;;;11.93;67.06;98266.75;5023145;28;8845;-71
2023/04/25 03:26:01;;;;;;;;;9.80;8.20;;;;;11.89;66.39;98275.75;5071441;28;8861;-74
2023/04/25 03:28:30;;;;;;;;;5.60;5.60;;;;;11.82;67.25;98278.69;5077298;28;8870;-71
2023/04/25 03:30:59;;;;;;;;;10.60;8.20;;;;;11.77;67.55;98277.13;5085834;28;8873;-70
2023/04/25 03:33:28;;;;;;;;;6.80;6.80;;;;;11.96;66.71;98265.78;5069078;28;8858;-73
2023/04/25 03:35:58;;;;;;;;;6.40;6.40;;;;;11.82;67.27;98265.53;5070114;28;8877;-72
2023/04/25 03:38:28;;;;;;;;;7.00;6.40;;;;;12.01;66.99;98276.94;5069043;28;8981;-72
2023/04/25 03:40:58;;;;;;;;;6.00;6.00;;;;;12.20;66.46;98269.03;5035614;28;8854;-73
2023/04/25 03:43:36;;;;;;;;;10.80;7.60;;;;;11.68;67.54;98271.44;5027019;28;8854;-74
2023/04/25 03:46:10;;;;;;;;;5.60;5.60;;;;;11.93;66.57;98269.41;5052736;28;8854;-73
2023/04/25 03:48:40;;;;;;;;;5.40;5.40;;;;;11.81;67.27;98277.84;5068643;28;8862;-70
2023/04/25 03:51:12;;;;;;;;;6.00;6.00;;;;;12.03;65.87;98271.59;5085592;28;8846;-71
2023/04/25 03:53:47;;;;;;;;;5.80;5.80;;;;;11.82;66.56;98269.03;5021449;28;8912;-74
2023/04/25 03:56:46;;;;;;;;;19.40;17.20;;;;;11.71;67.16;98276.56;5009317;28;8878;-71
2023/04/25 03:59:20;;;;;;;;;8.40;7.00;;;;;11.87;67.08;98272.31;4995849;28;8856;-70
2023/04/25 04:01:49;;;;;;;;;8.20;8.20;;;;;11.91;66.69;98278.31;5026969;28;9582;-71
2023/04/25 04:04:18;;;;;;;;;7.20;7.20;;;;;12.11;66.31;98275.59;5026640;28;9007;-71
2023/04/25 04:06:49;;;;;;;;;5.60;5.60;;;;;11.95;66.73;98279.88;5026638;28;8853;-72
2023/04/25 04:09:23;;;;;;;;;10.20;7.80;;;;;12.21;65.63;98276.00;5026203;28;9539;-72
2023/04/25 04:11:53;;;;;;;;;12.60;11.80;;;;;11.43;67.75;98276.97;5045349;28;8849;-71
2023/04/25 04:14:21;;;;;;;;;17.40;13.60;;;;;11.92;66.47;98278.25;5046210;28;9037;-75
2023/04/25 04:16:52;;;;;;;;;5.80;5.40;;;;;11.87;66.82;98280.22;5029857;28;9046;-73
2023/04/25 04:19:21;;;;;;;;;6.00;6.00;;;;;11.91;66.35;98279.16;5030103;28;8904;-74
2023/04/25 04:22:05;;;;;;;;;9.00;9.00;;;;;12.14;66.32;98278.09;5006667;28;8894;-71
2023/04/25 04:24:34;;;;;;;;;6.60;6.60;;;;;12.22;66.15;98279.47;4990433;28;8859;-72
2023/04/25 04:27:07;;;;;;;;;4.20;4.20;;;;;12.11;66.09;98282.66;4989213;28;8881;-72
2023/04/25 04:29:54;;;;;;;;;7.00;7.00;;;;;12.19;65.77;98280.50;4946133;28;9029;-75
2023/04/25 04:32:29;;;;;;;;;22.20;19.40;;;;;12.16;65.96;98280.63;4974785;28;8825;-71
2023/04/25 04:34:59;;;;;;;;;7.80;7.80;;;;;12.05;65.65;98281.16;5026639;28;8926;-71
2023/04/25 04:37:30;;;;;;;;;11.20;9.20;;;;;11.99;66.87;98278.78;5010043;28;8863;-75
2023/04/25 04:40:01;;;;;;;;;10.80;10.20;;;;;12.22;66.01;98276.84;5009731;28;8978;-71
2023/04/25 04:42:56;;;;;;;;;11.40;8.40;;;;;12.28;65.67;98279.22;5016926;28;8873;-72
2023/04/25 04:45:41;;;;;;;;;17.60;16.60;;;;;11.94;66.78;98281.66;5006267;28;8870;-72
2023/04/25 04:48:23;;;;;;;;;30.50;30.50;;;;;12.18;65.78;98284.03;5005804;28;8866;-70
2023/04/25 04:51:19;;;;;;;;;32.00;31.50;;;;;12.08;66.44;98282.78;5003678;28;8952;-73
2023/04/25 04:54:07;;;;;;;;;31.75;29.75;;;;;12.28;66.01;98279.22;4994030;28;8862;-71
2023/04/25 04:56:50;;;;;;;;;14.00;13.20;;;;;12.32;65.14;98288.66;5007372;28;9022;-71
2023/04/25 04:59:44;;;;;;;;;11.40;11.40;;;;;12.59;65.13;98282.97;5015498;28;8967;-72
2023/04/25 05:02:39;;;;;;;;;15.00;13.00;;;;;12.62;64.60;98293.38;5025793;28;8844;-72
2023/04/25 05:05:27;;;;;;;;;14.00;11.40;;;;;12.58;64.07;98289.16;5038517;28;8858;-74
2023/04/25 05:08:28;;;;;;;;;11.20;11.00;;;;;12.37;64.82;98283.16;5026056;28;8983;-75
2023/04/25 05:11:15;;;;;;;;;10.80;10.80;;;;;12.14;65.25;98293.91;5009046;28;8865;-72
2023/04/25 05:13:57;;;;;;;;;9.20;8.60;;;;;11.25;68.24;98287.38;5024786;28;8963;-74
2023/04/25 05:16:54;;;;;;;;;6.20;5.80;;;;;10.82;70.80;98306.78;5025367;28;8853;-70
2023/04/25 05:19:59;;;;;;;;;9.60;8.20;;;;;10.46;72.54;98317.84;4908660;29;8920;-74
2023/04/25 05:53:58;;;;;;;;;14.60;14.40;;;;;7.29;89.24;98397.22;5110769;27;13513;-79
2023/04/25 05:56:28;;;;;;;;;8.80;8.80;;;;;7.06;90.51;98392.56;5103940;28;8957;-77
2023/04/25 05:58:57;;;;;;;;;23.40;21.00;;;;;7.16;90.04;98391.47;5086324;28;8844;-75
2023/04/25 06:01:27;;;;;;;;;19.00;17.60;;;;;7.24;90.57;98402.56;5103183;28;8844;-76
2023/04/25 06:03:55;;;;;;;;;19.20;17.00;;;;;7.02;92.23;98399.66;5086396;28;8859;-78
2023/04/25 06:06:26;;;;;;;;;20.00;17.40;;;;;6.97;91.84;98400.66;5103697;28;8944;-76
2023/04/25 06:08:55;;;;;;;;;17.40;15.60;;;;;6.85;91.98;98418.31;5069585;28;8860;-78
2023/04/25 06:11:26;;;;;;;;;18.20;17.60;;;;;6.91;91.73;98417.34;5102842;28;9087;-79
2023/04/25 06:13:55;;;;;;;;;18.40;17.00;;;;;6.85;91.50;98425.28;5130884;27;8863;-79
2023/04/25 06:16:25;;;;;;;;;20.40;20.40;;;;;6.92;91.24;98428.66;5099591;28;8989;-76
2023/04/25 06:18:55;;;;;;;;;17.60;17.40;;;;;6.83;91.84;98425.34;5100276;27;8870;-76
2023/04/25 06:21:24;;;;;;;;;17.00;17.00;;;;;6.73;91.11;98444.72;5084445;28;9723;-77
2023/04/25 06:23:53;;;;;;;;;17.60;15.20;;;;;6.53;92.08;98447.78;5118673;27;8879;-75
2023/04/25 06:26:26;;;;;;;;;16.20;15.00;;;;;6.49;90.91;98457.44;5086756;28;8889;-77
2023/04/25 06:28:55;;;;;;;;;16.40;14.60;;;;;6.70;91.36;98448.25;5103218;28;9035;-76
2023/04/25 06:31:25;;;;;;;;;21.40;18.80;;;;;6.63;91.94;98453.66;5086632;28;9652;-75
2023/04/25 06:33:56;;;;;;;;;16.20;15.00;;;;;6.90;90.80;98442.59;5086390;28;8856;-77
2023/04/25 06:36:27;;;;;;;;;15.80;14.60;;;;;6.81;90.36;98455.81;5086908;28;8864;-78
2023/04/25 06:39:02;;;;;;;;;14.00;14.00;;;;;6.74;89.41;98463.84;5088409;28;8885;-78
2023/04/25 06:41:33;;;;;;;;;23.00;21.40;;;;;6.69;91.00;98474.41;5091801;28;8840;-79
2023/04/25 06:44:03;;;;;;;;;16.40;16.40;;;;;6.79;90.15;98468.06;5069504;28;8831;-77
2023/04/25 06:46:51;;;;;;;;;14.60;14.00;;;;;6.84;89.72;98468.84;5064606;28;8859;-77
2023/04/25 06:49:20;;;;;;;;;19.80;18.80;;;;;6.87;90.37;98471.38;5081465;28;9637;-79
2023/04/25 06:51:49;;;;;;;;;19.00;19.00;;;;;7.05;88.50;98479.72;5081675;28;8879;-75
2023/04/25 06:54:18;;;;;;;;;18.80;17.40;;;;;7.06;88.19;98484.03;5081862;28;8867;-77
2023/04/25 06:57:00;;;;;;;;;23.40;21.40;;;;;7.11;88.77;98486.53;5006452;28;8918;-77
2023/04/25 06:59:30;;;;;;;;;19.60;19.60;;;;;7.16;88.06;98475.09;5098151;28;8968;-79
2023/04/25 07:01:59;;;;;;;;;18.60;17.60;;;;;7.35;86.56;98485.09;5057527;28;8832;-77
2023/04/25 07:04:27;;;;;;;;;20.00;18.40;;;;;7.73;86.02;98488.47;4973795;28;8902;-78
2023/04/25 07:07:00;;;;;;;;;21.00;19.60;;;;;7.81;85.55;98476.91;4985300;28;8855;-76
2023/04/25 07:09:55;;;;;;;;;18.60;16.60;;;;;7.75;84.74;98484.06;4968530;28;8953;-76
2023/04/25 07:12:25;;;;;;;;;21.00;19.40;;;;;7.84;84.12;98489.06;4984518;28;8897;-77
2023/04/25 07:14:54;;;;;;;;;14.80;14.40;;;;;8.07;84.08;98491.03;4968424;28;8883;-79
2023/04/25 07:17:23;;;;;;;;;16.40;14.80;;;;;7.77;84.65;98504.03;4993937;28;8870;-77
2023/04/25 07:19:53;;;;;;;;;14.20;13.60;;;;;7.60;84.49;98495.78;4991227;28;8867;-77
2023/04/25 07:22:22;;;;;;;;;14.60;13.80;;;;;7.92;84.62;98483.63;5007746;28;8854;-78
2023/04/25 07:24:53;;;;;;;;;15.20;14.20;;;;;7.84;84.06;98489.91;4991516;28;9103;-76
2023/04/25 07:27:26;;;;;;;;;15.40;15.20;;;;;7.91;84.15;98498.47;4993530;28;8884;-79
2023/04/25 07:30:01;;;;;;;;;14.80;13.40;;;;;8.10;83.05;98490.97;5023904;28;8925;-81
2023/04/25 07:32:30;;;;;;;;;19.00;15.60;;;;;8.11;84.05;98497.91;5032257;28;8880;-78
2023/04/25 07:34:59;;;;;;;;;13.00;13.00;;;;;7.96;84.21;98499.19;5019268;28;8850;-77
2023/04/25 07:37:28;;;;;;;;;15.00;13.60;;;;;8.23;82.54;98497.56;5068545;28;9123;-77
2023/04/25 07:40:07;;;;;;;;;14.20;12.00;;;;;8.04;82.83;98505.09;5067978;28;9033;-79
2023/04/25 07:42:38;;;;;;;;;12.20;12.20;;;;;8.08;82.71;98508.47;5068443;28;8846;-77
2023/04/25 07:45:09;;;;;;;;;15.00;12.80;;;;;8.11;82.04;98508.38;5102044;28;9595;-77
2023/04/25 07:47:40;;;;;;;;;14.80;14.80;;;;;8.28;82.39;98507.91;5029596;28;8862;-77
2023/04/25 07:50:10;;;;;;;;;14.20;13.00;;;;;8.03;80.79;98512.97;5088606;28;8940;-76
2023/04/25 07:52:39;;;;;;;;;15.40;14.80;;;;;8.45;81.47;98512.69;5071910;28;8994;-77
2023/04/25 07:55:25;;;;;;;;;10.00;10.00;;;;;8.18;81.37;98515.16;5058817;28;9040;-77
2023/04/25 07:58:21;;;;;;;;;16.00;12.40;;;;;8.30;80.64;98515.72;5007094;28;8851;-76
2023/04/25 08:00:54;;;;;;;;;15.60;14.00;;;;;8.45;80.18;98517.94;4958828;28;8863;-77
2023/04/25 08:03:49;;;;;;;;;13.00;10.60;;;;;8.39;79.36;98518.13;4967708;28;8856;-78
2023/04/25 08:06:41;;;;;;;;;11.40;11.40;;;;;8.62;78.47;98514.81;4967947;28;8882;-79
2023/04/25 08:09:17;;;;;;;;;12.20;12.20;;;;;8.25;79.47;98523.69;4951775;28;8856;-78
2023/04/25 08:11:48;;;;;;;;;11.80;9.00;;;;;8.53;79.27;98518.56;4952158;28;8868;-77
2023/04/25 08:14:21;;;;;;;;;13.20;10.40;;;;;8.68;78.57;98526.88;4951635;28;9018;-79
2023/04/25 08:16:51;;;;;;;;;17.60;14.80;;;;;9.13;78.17;98523.78;4951178;28;8864;-76
2023/04/25 08:19:20;;;;;;;;;13.20;13.20;;;;;9.07;76.36;98531.84;4967915;28;8983;-78
2023/04/25 08:21:51;;;;;;;;;10.60;9.60;;;;;8.59;77.82;98533.25;4968712;28;8864;-78
2023/04/25 08:24:27;;;;;;;;;14.80;13.60;;;;;8.47;78.71;98531.84;4936274;28;9016;-75
2023/04/25 08:26:56;;;;;;;;;13.00;12.40;;;;;8.92;76.81;98539.25;4965695;28;8900;-77
2023/04/25 08:29:29;;;;;;;;;12.80;11.00;;;;;8.90;76.29;98541.06;4954592;28;8889;-78
2023/04/25 08:31:58;;;;;;;;;13.00;12.40;;;;;8.64;77.01;98529.59;4952284;28;9749;-80
2023/04/25 08:34:27;;;;;;;;;14.60;14.60;;;;;8.96;77.11;98540.00;4953289;28;8865;-80
2023/04/25 08:36:56;;;;;;;;;18.00;14.40;;;;;9.09;76.56;98545.75;4991562;28;8862;-78
2023/04/25 08:39:50;;;;;;;;;17.80;17.40;;;;;9.51;75.61;98540.88;4994022;28;8857;-78
2023/04/25 08:42:20;;;;;;;;;17.60;12.60;;;;;9.49;73.31;98544.47;5084811;28;8826;-78
2023/04/25 08:44:50;;;;;;;;;15.60;12.40;;;;;9.70;73.98;98543.78;5049551;28;8852;-79
2023/04/25 08:47:23;;;;;;;;;14.80;14.80;;;;;9.40;73.81;98550.88;5049836;28;8844;-79
2023/04/25 08:49:57;;;;;;;;;24.00;20.80;;;;;9.64;74.89;98553.66;5049563;28;8852;-79
2023/04/25 08:52:31;;;;;;;;;12.40;12.00;;;;;9.26;73.56;98548.69;5046766;28;8890;-80
2023/04/25 08:55:02;;;;;;;;;13.40;13.20;;;;;9.76;72.89;98550.59;5046389;28;8885;-79
2023/04/25 08:57:32;;;;;;;;;11.00;9.40;;;;;9.58;72.65;98550.31;5062079;28;8839;-77
2023/04/25 09:00:05;;;;;;;;;16.20;13.60;;;;;10.12;72.48;98552.88;5065351;28;9050;-79
2023/04/25 09:02:40;;;;;;;;;11.00;11.00;;;;;9.71;71.31;98563.88;5048819;28;8863;-78
2023/04/25 09:05:10;;;;;;;;;15.20;14.80;;;;;9.74;70.17;98562.91;5032728;28;9004;-80
2023/04/25 09:07:39;;;;;;;;;9.40;9.40;;;;;9.59;68.98;98567.78;5016570;28;8870;-79
2023/04/25 09:10:09;;;;;;;;;10.60;10.60;;;;;9.49;69.55;98566.31;5032127;28;8887;-78
2023/04/25 09:12:40;;;;;;;;;11.40;11.40;;;;;9.49;68.78;98570.72;5032584;28;8948;-76
2023/04/25 09:15:13;;;;;;;;;13.20;10.20;;;;;9.55;67.38;98560.84;5065436;28;8872;-78
2023/04/25 09:17:57;;;;;;;;;6.80;6.80;;;;;10.19;68.21;98557.84;5065695;28;8980;-79
2023/04/25 09:20:31;;;;;;;;;10.60;10.60;;;;;10.27;65.59;98560.19;5032812;28;8949;-78
2023/04/25 09:23:04;;;;;;;;;8.60;8.00;;;;;9.97;63.21;98585.75;5056514;28;8881;-78
2023/04/25 09:25:38;;;;;;;;;9.00;8.40;;;;;9.25;62.54;98588.91;5103641;28;8903;-77
2023/04/25 09:28:10;;;;;;;;;8.20;6.20;;;;;9.34;64.28;98578.16;5121056;27;8839;-78
2023/04/25 09:30:40;;;;;;;;;8.40;8.40;;;;;9.51;65.59;98569.75;5036880;28;9615;-78
2023/04/25 09:33:13;;;;;;;;;6.20;6.00;;;;;9.17;63.83;98572.56;5104105;28;8878;-79
2023/04/25 09:35:52;;;;;;;;;7.00;7.00;;;;;9.16;65.46;98576.13;5070057;28;8863;-80
2023/04/25 09:38:41;;;;;;;;;9.60;9.20;;;;;8.94;67.48;98582.00;5121054;27;8860;-78
2023/04/25 09:41:24;;;;;;;;;11.40;11.40;;;;;9.35;68.38;98581.66;5086642;28;8872;-78
2023/04/25 09:43:58;;;;;;;;;11.20;10.40;;;;;9.90;68.93;98579.03;5120858;27;8855;-79
2023/04/25 09:46:37;;;;;;;;;11.80;11.00;;;;;10.00;67.64;98583.03;5086802;28;8844;-77
2023/04/25 09:49:10;;;;;;;;;10.20;10.00;;;;;9.87;66.59;98585.22;5086388;28;8843;-77
2023/04/25 09:51:56;;;;;;;;;9.80;9.40;;;;;9.64;65.47;98582.50;5070981;28;8899;-78
2023/04/25 09:54:27;;;;;;;;;11.80;11.20;;;;;9.74;66.05;98579.50;5120374;28;9030;-78
2023/04/25 09:57:19;;;;;;;;;9.20;9.20;;;;;9.60;65.85;98577.34;5086670;28;8840;-79
2023/04/25 09:59:50;;;;;;;;;10.60;10.60;;;;;9.98;65.11;98579.63;5086473;28;8848;-80
2023/04/25 10:02:22;;;;;;;;;5.40;5.40;;;;;10.24;60.44;98573.47;5085952;28;8958;-79
2023/04/25 10:04:55;;;;;;;;;11.20;10.20;;;;;10.11;58.13;98572.19;5036265;28;8929;-77
2023/04/25 10:07:32;;;;;;;;;5.00;5.00;;;;;9.71;55.97;98576.16;5120918;28;8832;-77
2023/04/25 10:10:03;;;;;;;;;4.00;4.00;;;;;9.72;57.05;98575.22;5086946;28;8844;-77
2023/04/25 10:12:34;;;;;;;;;7.40;7.40;;;;;9.87;56.75;98566.00;5097030;28;8844;-77
2023/04/25 10:15:04;;;;;;;;;5.80;5.80;;;;;9.76;58.99;98561.09;5094355;28;8852;-77
2023/04/25 10:17:36;;;;;;;;;9.20;8.00;;;;;9.64;60.89;98559.75;5088978;28;8867;-78
2023/04/25 10:20:10;;;;;;;;;11.40;11.00;;;;;9.76;60.80;98561.09;5087072;28;8859;-78
2023/04/25 10:22:43;;;;;;;;;10.80;10.80;;;;;9.64;62.50;98572.88;5087869;28;8863;-76
2023/04/25 10:25:13;;;;;;;;;9.40;9.40;;;;;9.93;63.48;98561.41;5087974;28;8848;-78
2023/04/25 10:27:42;;;;;;;;;10.20;10.20;;;;;10.48;63.20;98547.22;5088251;28;8862;-78
2023/04/25 10:30:15;;;;;;;;;15.20;14.00;;;;;10.76;60.25;98544.44;5086760;28;8852;-79
2023/04/25 10:32:47;;;;;;;;;12.60;11.80;;;;;10.60;60.60;98552.03;5089795;28;8860;-77
2023/04/25 10:35:17;;;;;;;;;11.40;10.00;;;;;10.84;59.87;98550.28;5071062;28;8863;-77
2023/04/25 10:37:58;;;;;;;;;9.60;9.60;;;;;10.60;60.37;98549.41;5086958;28;8952;-78
2023/04/25 10:40:28;;;;;;;;;10.00;9.40;;;;;10.60;60.66;98545.00;5071690;28;8836;-78
2023/04/25 10:43:17;;;;;;;;;8.40;8.40;;;;;10.90;58.62;98541.31;5091593;28;9707;-78
2023/04/25 10:45:52;;;;;;;;;11.00;10.80;;;;;11.04;58.26;98543.41;5089762;28;8852;-78
2023/04/25 10:48:27;;;;;;;;;11.40;10.80;;;;;11.13;57.64;98530.75;5089878;28;8843;-77
2023/04/25 10:51:09;;;;;;;;;8.80;8.80;;;;;11.61;57.19;98531.44;5072823;28;8879;-78
2023/04/25 10:53:38;;;;;;;;;10.80;10.40;;;;;12.14;58.18;98528.34;5067823;28;8852;-78
2023/04/25 10:56:12;;;;;;;;;10.00;10.00;;;;;12.36;56.62;98526.53;5052227;28;8860;-77
2023/04/25 10:58:45;;;;;;;;;9.60;8.00;;;;;11.59;50.70;98517.50;5068893;28;8852;-78
2023/04/25 11:01:21;;;;;;;;;5.60;5.60;;;;;11.25;51.12;98518.03;5036120;28;9013;-77
2023/04/25 11:03:59;;;;;;;;;9.20;6.60;;;;;11.41;52.77;98521.75;5069420;28;8836;-77
2023/04/25 11:06:37;;;;;;;;;11.80;10.60;;;;;12.02;54.55;98522.75;5035317;28;8844;-79
2023/04/25 11:09:13;;;;;;;;;10.80;10.80;;;;;11.38;51.29;98524.50;5068062;28;8894;-78
2023/04/25 11:11:42;;;;;;;;;8.60;5.60;;;;;11.29;52.42;98519.59;5067740;28;8859;-79
2023/04/25 11:14:11;;;;;;;;;9.20;9.20;;;;;11.55;53.61;98514.13;5068000;28;8835;-81
2023/04/25 11:16:40;;;;;;;;;9.00;9.00;;;;;11.66;52.92;98524.22;5068310;28;8864;-79
2023/04/25 11:19:10;;;;;;;;;8.60;7.40;;;;;11.35;53.05;98522.84;5068702;28;8994;-79
2023/04/25 11:21:40;;;;;;;;;12.00;12.00;;;;;11.85;54.40;98521.69;5068123;28;8852;-79
2023/04/25 11:24:09;;;;;;;;;10.60;10.60;;;;;12.30;55.35;98525.03;5057590;28;8970;-78
2023/04/25 11:26:38;;;;;;;;;9.40;8.40;;;;;12.65;53.79;98514.66;5091735;28;8840;-78
2023/04/25 11:29:07;;;;;;;;;12.60;12.40;;;;;13.03;53.88;98512.03;5073006;28;8867;-78
2023/04/25 11:31:36;;;;;;;;;8.00;6.80;;;;;13.34;53.62;98518.50;5072062;28;8839;-77
2023/04/25 11:34:05;;;;;;;;;7.40;7.40;;;;;13.37;50.47;98510.41;5091380;28;8864;-79
2023/04/25 11:36:39;;;;;;;;;13.40;12.60;;;;;13.39;52.70;98514.72;5038571;28;8894;-78
2023/04/25 11:39:08;;;;;;;;;10.80;9.00;;;;;13.36;49.65;98506.94;5089207;28;10018;-77
2023/04/25 11:41:38;;;;;;;;;7.60;6.40;;;;;12.88;49.74;98511.88;5072677;28;8864;-79
2023/04/25 11:44:09;;;;;;;;;7.00;7.00;;;;;13.01;52.24;98504.19;5072358;28;8860;-77
2023/04/25 11:46:38;;;;;;;;;10.80;10.80;;;;;12.78;50.69;98507.91;5090612;28;8975;-78
2023/04/25 11:49:07;;;;;;;;;7.00;7.00;;;;;12.90;49.50;98495.94;5123907;27;8864;-78
2023/04/25 11:51:41;;;;;;;;;10.80;8.80;;;;;12.28;50.90;98509.28;5089568;28;8869;-80
2023/04/25 11:54:10;;;;;;;;;8.20;8.20;;;;;12.42;50.98;98500.75;5089633;28;8859;-78
2023/04/25 11:56:41;;;;;;;;;8.80;7.60;;;;;13.19;52.50;98502.47;5091312;28;8883;-80
2023/04/25 11:59:11;;;;;;;;;6.60;6.00;;;;;13.40;50.74;98499.72;5096185;28;8944;-77
2023/04/25 12:01:48;;;;;;;;;9.20;9.20;;;;;14.05;49.98;98492.03;5091917;28;8875;-78
2023/04/25 12:04:18;;;;;;;;;9.40;8.80;;;;;13.96;47.34;98485.47;5124003;27;8978;-78
2023/04/25 12:06:51;;;;;;;;;9.20;9.00;;;;;14.08;46.34;98478.69;5051507;28;8844;-77
2023/04/25 12:09:22;;;;;;;;;5.80;5.80;;;;;13.55;46.79;98475.19;5067930;28;8949;-76
2023/04/25 12:11:55;;;;;;;;;7.40;7.40;;;;;14.15;48.71;98468.63;5051818;28;8882;-77
2023/04/25 12:14:26;;;;;;;;;6.00;6.00;;;;;13.49;46.48;98481.63;5034489;28;8836;-79
2023/04/25 12:16:58;;;;;;;;;7.80;7.80;;;;;13.62;47.02;98481.00;5067810;28;9034;-79
2023/04/25 12:19:32;;;;;;;;;6.60;6.40;;;;;13.83;46.52;98465.91;5067505;28;8866;-78
2023/04/25 12:22:04;;;;;;;;;7.00;7.00;;;;;13.26;47.25;98469.59;5050835;28;8859;-78
2023/04/25 12:24:35;;;;;;;;;7.40;7.40;;;;;13.87;48.23;98464.81;5067027;28;8864;-76
2023/04/25 12:27:08;;;;;;;;;6.80;6.40;;;;;14.17;46.36;98469.41;5066827;28;8982;-77
2023/04/25 12:29:37;;;;;;;;;9.00;7.40;;;;;14.30;48.20;98454.63;5066646;28;8871;-78
2023/04/25 12:32:18;;;;;;;;;8.00;5.40;;;;;15.21;44.62;98449.59;5067120;28;8936;-77